sensor_id;sensor_type;location;lat;lon;timestamp;temperature;humidity
65692;DHT22;52411;52.716;6.696;2022-08-24T00:01:17;19.50;99.90
65692;DHT22;52411;52.716;6.696;2022-08-24T00:03:44;19.40;99.90
65692;DHT22;52411;52.716;6.696;2022-08-24T00:06:17;19.50;99.90
65692;DHT22;52411;52.716;6.696;2022-08-24T00:08:44;19.50;99.90
65692;DHT22;52411;52.716;6.696;2022-08-24T00:11:10;19.50;99.90
65692;DHT22;52411;52.716;6.696;2022-08-24T00:13:36;19.40;99.90
65692;DHT22;52411;52.716;6.696;2022-08-24T00:16:04;19.40;99.90
65692;DHT22;52411;52.716;6.696;2022-08-24T00:18:29;19.30;99.90
65692;DHT22;52411;52.716;6.696;2022-08-24T00:20:55;19.00;99.90
65692;DHT22;52411;52.716;6.696;2022-08-24T00:23:21;18.80;99.90
65692;DHT22;52411;52.716;6.696;2022-08-24T00:25:46;18.70;99.90
65692;DHT22;52411;52.716;6.696;2022-08-24T00:28:12;18.70;99.90
65692;DHT22;52411;52.716;6.696;2022-08-24T00:30:38;18.60;99.90
65692;DHT22;52411;52.716;6.696;2022-08-24T00:33:04;18.60;99.90
65692;DHT22;52411;52.716;6.696;2022-08-24T00:35:30;18.70;99.90
65692;DHT22;52411;52.716;6.696;2022-08-24T00:37:56;18.70;99.90
65692;DHT22;52411;52.716;6.696;2022-08-24T00:40:29;18.50;99.90
65692;DHT22;52411;52.716;6.696;2022-08-24T00:42:59;18.50;99.90
65692;DHT22;52411;52.716;6.696;2022-08-24T00:45:30;18.40;99.90
65692;DHT22;52411;52.716;6.696;2022-08-24T00:48:05;18.30;99.90
65692;DHT22;52411;52.716;6.696;2022-08-24T00:50:40;18.40;99.90
65692;DHT22;52411;52.716;6.696;2022-08-24T00:53:16;18.50;99.90
65692;DHT22;52411;52.716;6.696;2022-08-24T00:55:52;18.50;99.90
65692;DHT22;52411;52.716;6.696;2022-08-24T00:58:24;18.60;99.90
65692;DHT22;52411;52.716;6.696;2022-08-24T01:01:00;18.60;99.90
65692;DHT22;52411;52.716;6.696;2022-08-24T01:03:27;18.60;99.90
65692;DHT22;52411;52.716;6.696;2022-08-24T01:05:54;18.60;99.90
65692;DHT22;52411;52.716;6.696;2022-08-24T01:08:22;18.60;99.90
65692;DHT22;52411;52.716;6.696;2022-08-24T01:10:54;18.60;99.90
65692;DHT22;52411;52.716;6.696;2022-08-24T01:13:21;18.50;99.90
65692;DHT22;52411;52.716;6.696;2022-08-24T01:15:49;18.40;99.90
65692;DHT22;52411;52.716;6.696;2022-08-24T01:18:18;18.30;99.90
65692;DHT22;52411;52.716;6.696;2022-08-24T01:21:29;18.20;99.90
65692;DHT22;52411;52.716;6.696;2022-08-24T01:24:02;18.20;99.90
65692;DHT22;52411;52.716;6.696;2022-08-24T01:26:38;18.10;99.90
65692;DHT22;52411;52.716;6.696;2022-08-24T01:29:11;18.10;99.90
65692;DHT22;52411;52.716;6.696;2022-08-24T01:31:37;18.00;99.90
65692;DHT22;52411;52.716;6.696;2022-08-24T01:34:03;17.90;99.90
65692;DHT22;52411;52.716;6.696;2022-08-24T01:36:38;17.70;99.90
65692;DHT22;52411;52.716;6.696;2022-08-24T01:39:14;17.60;99.90
65692;DHT22;52411;52.716;6.696;2022-08-24T01:41:40;17.50;99.90
65692;DHT22;52411;52.716;6.696;2022-08-24T01:44:07;17.40;99.90
65692;DHT22;52411;52.716;6.696;2022-08-24T01:46:34;17.30;99.90
65692;DHT22;52411;52.716;6.696;2022-08-24T01:49:00;17.20;99.90
65692;DHT22;52411;52.716;6.696;2022-08-24T01:51:31;17.20;99.90
65692;DHT22;52411;52.716;6.696;2022-08-24T01:53:58;17.20;99.90
65692;DHT22;52411;52.716;6.696;2022-08-24T01:56:27;17.20;99.90
65692;DHT22;52411;52.716;6.696;2022-08-24T01:58:53;17.10;99.90
65692;DHT22;52411;52.716;6.696;2022-08-24T02:01:19;17.10;99.90
65692;DHT22;52411;52.716;6.696;2022-08-24T02:03:45;17.10;99.90
65692;DHT22;52411;52.716;6.696;2022-08-24T02:06:10;17.10;99.90
65692;DHT22;52411;52.716;6.696;2022-08-24T02:08:36;17.10;99.90
65692;DHT22;52411;52.716;6.696;2022-08-24T02:11:05;17.10;99.90
65692;DHT22;52411;52.716;6.696;2022-08-24T02:13:31;17.10;99.90
65692;DHT22;52411;52.716;6.696;2022-08-24T02:15:57;17.10;99.90
65692;DHT22;52411;52.716;6.696;2022-08-24T02:18:23;17.20;99.90
65692;DHT22;52411;52.716;6.696;2022-08-24T02:20:49;17.30;99.90
65692;DHT22;52411;52.716;6.696;2022-08-24T02:23:14;17.30;99.90
65692;DHT22;52411;52.716;6.696;2022-08-24T02:25:40;17.40;99.90
65692;DHT22;52411;52.716;6.696;2022-08-24T02:28:06;17.30;99.90
65692;DHT22;52411;52.716;6.696;2022-08-24T02:30:32;17.30;99.90
65692;DHT22;52411;52.716;6.696;2022-08-24T02:32:59;17.30;99.90
65692;DHT22;52411;52.716;6.696;2022-08-24T02:35:26;17.30;99.90
65692;DHT22;52411;52.716;6.696;2022-08-24T02:37:52;17.30;99.90
65692;DHT22;52411;52.716;6.696;2022-08-24T02:40:18;17.30;99.90
65692;DHT22;52411;52.716;6.696;2022-08-24T02:42:44;17.30;99.90
65692;DHT22;52411;52.716;6.696;2022-08-24T02:45:10;17.20;99.90
65692;DHT22;52411;52.716;6.696;2022-08-24T02:47:36;17.10;99.90
65692;DHT22;52411;52.716;6.696;2022-08-24T02:50:04;17.10;99.90
65692;DHT22;52411;52.716;6.696;2022-08-24T02:52:30;17.10;99.90
65692;DHT22;52411;52.716;6.696;2022-08-24T02:54:55;16.80;99.90
65692;DHT22;52411;52.716;6.696;2022-08-24T02:57:21;16.70;99.90
65692;DHT22;52411;52.716;6.696;2022-08-24T02:59:47;16.60;99.90
65692;DHT22;52411;52.716;6.696;2022-08-24T03:02:12;16.40;99.90
65692;DHT22;52411;52.716;6.696;2022-08-24T03:04:38;16.20;99.90
65692;DHT22;52411;52.716;6.696;2022-08-24T03:07:04;16.10;99.90
65692;DHT22;52411;52.716;6.696;2022-08-24T03:09:30;16.10;99.90
65692;DHT22;52411;52.716;6.696;2022-08-24T03:11:55;16.10;99.90
65692;DHT22;52411;52.716;6.696;2022-08-24T03:14:21;16.20;99.90
65692;DHT22;52411;52.716;6.696;2022-08-24T03:16:46;16.30;99.90
65692;DHT22;52411;52.716;6.696;2022-08-24T03:19:13;16.40;99.90
65692;DHT22;52411;52.716;6.696;2022-08-24T03:21:40;16.40;99.90
65692;DHT22;52411;52.716;6.696;2022-08-24T03:24:06;16.50;99.90
65692;DHT22;52411;52.716;6.696;2022-08-24T03:26:32;16.50;99.90
65692;DHT22;52411;52.716;6.696;2022-08-24T03:28:58;16.50;99.90
65692;DHT22;52411;52.716;6.696;2022-08-24T03:31:23;16.50;99.90
65692;DHT22;52411;52.716;6.696;2022-08-24T03:33:49;16.40;99.90
65692;DHT22;52411;52.716;6.696;2022-08-24T03:36:15;16.40;99.90
65692;DHT22;52411;52.716;6.696;2022-08-24T03:38:41;16.40;99.90
65692;DHT22;52411;52.716;6.696;2022-08-24T03:41:08;16.40;99.90
65692;DHT22;52411;52.716;6.696;2022-08-24T03:43:33;16.40;99.90
65692;DHT22;52411;52.716;6.696;2022-08-24T03:46:22;16.40;99.90
65692;DHT22;52411;52.716;6.696;2022-08-24T03:48:48;16.30;99.90
65692;DHT22;52411;52.716;6.696;2022-08-24T03:51:16;16.20;99.90
65692;DHT22;52411;52.716;6.696;2022-08-24T03:53:43;16.20;99.90
65692;DHT22;52411;52.716;6.696;2022-08-24T03:56:09;16.20;99.90
65692;DHT22;52411;52.716;6.696;2022-08-24T03:58:36;16.20;99.90
65692;DHT22;52411;52.716;6.696;2022-08-24T04:01:03;16.20;99.90
65692;DHT22;52411;52.716;6.696;2022-08-24T04:03:29;16.20;99.90
65692;DHT22;52411;52.716;6.696;2022-08-24T04:05:55;16.20;99.90
65692;DHT22;52411;52.716;6.696;2022-08-24T04:08:20;16.10;99.90
65692;DHT22;52411;52.716;6.696;2022-08-24T04:10:47;16.10;99.90
65692;DHT22;52411;52.716;6.696;2022-08-24T04:13:13;16.10;99.90
65692;DHT22;52411;52.716;6.696;2022-08-24T04:15:40;15.90;99.90
65692;DHT22;52411;52.716;6.696;2022-08-24T04:18:07;15.80;99.90
65692;DHT22;52411;52.716;6.696;2022-08-24T04:20:40;15.70;99.90
65692;DHT22;52411;52.716;6.696;2022-08-24T04:23:07;15.70;99.90
65692;DHT22;52411;52.716;6.696;2022-08-24T04:25:41;15.70;99.90
65692;DHT22;52411;52.716;6.696;2022-08-24T04:28:06;15.80;99.90
65692;DHT22;52411;52.716;6.696;2022-08-24T04:30:32;15.80;99.90
65692;DHT22;52411;52.716;6.696;2022-08-24T04:32:58;15.80;99.90
65692;DHT22;52411;52.716;6.696;2022-08-24T04:35:23;15.70;99.90
65692;DHT22;52411;52.716;6.696;2022-08-24T04:37:49;15.70;99.90
65692;DHT22;52411;52.716;6.696;2022-08-24T04:40:15;15.60;99.90
65692;DHT22;52411;52.716;6.696;2022-08-24T04:42:41;15.70;99.90
65692;DHT22;52411;52.716;6.696;2022-08-24T04:45:07;15.70;99.90
65692;DHT22;52411;52.716;6.696;2022-08-24T04:47:33;15.70;99.90
65692;DHT22;52411;52.716;6.696;2022-08-24T04:49:58;15.80;99.90
65692;DHT22;52411;52.716;6.696;2022-08-24T04:52:24;15.80;99.90
65692;DHT22;52411;52.716;6.696;2022-08-24T04:54:50;15.90;99.90
65692;DHT22;52411;52.716;6.696;2022-08-24T04:57:16;15.90;99.90
65692;DHT22;52411;52.716;6.696;2022-08-24T04:59:42;15.90;99.90
65692;DHT22;52411;52.716;6.696;2022-08-24T05:02:08;15.90;99.90
65692;DHT22;52411;52.716;6.696;2022-08-24T05:04:34;15.90;99.90
65692;DHT22;52411;52.716;6.696;2022-08-24T05:06:59;16.00;99.90
65692;DHT22;52411;52.716;6.696;2022-08-24T05:09:25;16.00;99.90
65692;DHT22;52411;52.716;6.696;2022-08-24T05:11:51;16.00;99.90
65692;DHT22;52411;52.716;6.696;2022-08-24T05:14:17;16.10;99.90
65692;DHT22;52411;52.716;6.696;2022-08-24T05:16:43;16.10;99.90
65692;DHT22;52411;52.716;6.696;2022-08-24T05:19:09;16.20;99.90
65692;DHT22;52411;52.716;6.696;2022-08-24T05:21:36;16.10;99.90
65692;DHT22;52411;52.716;6.696;2022-08-24T05:24:03;16.20;99.90
65692;DHT22;52411;52.716;6.696;2022-08-24T05:26:29;16.20;99.90
65692;DHT22;52411;52.716;6.696;2022-08-24T05:28:57;16.30;99.90
65692;DHT22;52411;52.716;6.696;2022-08-24T05:31:25;16.40;99.90
65692;DHT22;52411;52.716;6.696;2022-08-24T05:33:52;16.40;99.90
65692;DHT22;52411;52.716;6.696;2022-08-24T05:36:24;16.50;99.90
65692;DHT22;52411;52.716;6.696;2022-08-24T05:38:52;16.50;99.90
65692;DHT22;52411;52.716;6.696;2022-08-24T05:41:19;16.60;99.90
65692;DHT22;52411;52.716;6.696;2022-08-24T05:43:45;16.60;99.90
65692;DHT22;52411;52.716;6.696;2022-08-24T05:46:12;16.70;99.90
65692;DHT22;52411;52.716;6.696;2022-08-24T05:48:38;16.80;99.90
65692;DHT22;52411;52.716;6.696;2022-08-24T05:51:04;16.80;99.90
65692;DHT22;52411;52.716;6.696;2022-08-24T05:53:31;16.90;99.90
65692;DHT22;52411;52.716;6.696;2022-08-24T05:55:56;17.00;99.90
65692;DHT22;52411;52.716;6.696;2022-08-24T05:58:22;17.10;99.90
65692;DHT22;52411;52.716;6.696;2022-08-24T06:00:48;17.30;99.90
65692;DHT22;52411;52.716;6.696;2022-08-24T06:03:15;17.40;99.90
65692;DHT22;52411;52.716;6.696;2022-08-24T06:05:42;17.50;99.90
65692;DHT22;52411;52.716;6.696;2022-08-24T06:08:09;17.60;99.90
65692;DHT22;52411;52.716;6.696;2022-08-24T06:10:43;17.70;99.90
65692;DHT22;52411;52.716;6.696;2022-08-24T06:13:09;17.80;99.90
65692;DHT22;52411;52.716;6.696;2022-08-24T06:15:36;17.90;99.90
65692;DHT22;52411;52.716;6.696;2022-08-24T06:18:03;18.00;99.90
65692;DHT22;52411;52.716;6.696;2022-08-24T06:20:29;18.10;99.90
65692;DHT22;52411;52.716;6.696;2022-08-24T06:22:55;18.20;99.90
65692;DHT22;52411;52.716;6.696;2022-08-24T06:25:21;18.40;99.90
65692;DHT22;52411;52.716;6.696;2022-08-24T06:28:05;18.50;99.90
65692;DHT22;52411;52.716;6.696;2022-08-24T06:30:30;18.60;99.90
65692;DHT22;52411;52.716;6.696;2022-08-24T06:33:00;18.70;99.90
65692;DHT22;52411;52.716;6.696;2022-08-24T06:35:26;18.80;99.90
65692;DHT22;52411;52.716;6.696;2022-08-24T06:37:52;18.90;99.90
65692;DHT22;52411;52.716;6.696;2022-08-24T06:40:18;19.00;99.90
65692;DHT22;52411;52.716;6.696;2022-08-24T06:42:45;19.10;99.90
65692;DHT22;52411;52.716;6.696;2022-08-24T06:45:11;19.20;99.90
65692;DHT22;52411;52.716;6.696;2022-08-24T06:47:37;19.20;99.90
65692;DHT22;52411;52.716;6.696;2022-08-24T06:50:03;19.30;99.90
65692;DHT22;52411;52.716;6.696;2022-08-24T06:52:31;19.50;99.90
65692;DHT22;52411;52.716;6.696;2022-08-24T06:54:56;19.60;99.90
65692;DHT22;52411;52.716;6.696;2022-08-24T06:57:22;19.70;99.90
65692;DHT22;52411;52.716;6.696;2022-08-24T06:59:47;19.80;99.90
65692;DHT22;52411;52.716;6.696;2022-08-24T07:02:13;19.90;99.90
65692;DHT22;52411;52.716;6.696;2022-08-24T07:04:43;20.00;99.90
65692;DHT22;52411;52.716;6.696;2022-08-24T07:07:09;20.10;99.90
65692;DHT22;52411;52.716;6.696;2022-08-24T07:09:35;20.20;99.90
65692;DHT22;52411;52.716;6.696;2022-08-24T07:12:00;20.30;99.90
65692;DHT22;52411;52.716;6.696;2022-08-24T07:14:26;20.40;99.90
65692;DHT22;52411;52.716;6.696;2022-08-24T07:16:52;20.40;99.90
65692;DHT22;52411;52.716;6.696;2022-08-24T07:19:18;20.50;99.90
65692;DHT22;52411;52.716;6.696;2022-08-24T07:21:44;20.50;99.90
65692;DHT22;52411;52.716;6.696;2022-08-24T07:24:09;20.60;99.90
65692;DHT22;52411;52.716;6.696;2022-08-24T07:26:36;20.70;99.90
65692;DHT22;52411;52.716;6.696;2022-08-24T07:29:05;20.80;99.90
65692;DHT22;52411;52.716;6.696;2022-08-24T07:31:35;20.90;99.90
65692;DHT22;52411;52.716;6.696;2022-08-24T07:34:01;21.00;99.90
65692;DHT22;52411;52.716;6.696;2022-08-24T07:36:28;21.10;99.90
65692;DHT22;52411;52.716;6.696;2022-08-24T07:38:53;21.20;99.90
65692;DHT22;52411;52.716;6.696;2022-08-24T07:41:23;21.20;99.90
65692;DHT22;52411;52.716;6.696;2022-08-24T07:43:53;21.30;99.90
65692;DHT22;52411;52.716;6.696;2022-08-24T07:46:19;21.40;99.90
65692;DHT22;52411;52.716;6.696;2022-08-24T07:48:45;21.40;99.90
65692;DHT22;52411;52.716;6.696;2022-08-24T07:51:14;21.50;99.90
65692;DHT22;52411;52.716;6.696;2022-08-24T07:53:41;21.60;99.90
65692;DHT22;52411;52.716;6.696;2022-08-24T07:56:07;21.70;99.90
65692;DHT22;52411;52.716;6.696;2022-08-24T07:58:33;21.70;99.90
65692;DHT22;52411;52.716;6.696;2022-08-24T08:00:59;21.80;99.90
65692;DHT22;52411;52.716;6.696;2022-08-24T08:03:25;22.00;99.90
65692;DHT22;52411;52.716;6.696;2022-08-24T08:05:59;22.00;99.90
65692;DHT22;52411;52.716;6.696;2022-08-24T08:08:26;22.20;99.90
65692;DHT22;52411;52.716;6.696;2022-08-24T08:10:51;22.20;99.90
65692;DHT22;52411;52.716;6.696;2022-08-24T08:13:17;22.30;99.90
65692;DHT22;52411;52.716;6.696;2022-08-24T08:15:43;22.30;99.90
65692;DHT22;52411;52.716;6.696;2022-08-24T08:18:10;22.40;99.90
65692;DHT22;52411;52.716;6.696;2022-08-24T08:20:38;22.40;99.90
65692;DHT22;52411;52.716;6.696;2022-08-24T08:23:04;22.60;99.90
65692;DHT22;52411;52.716;6.696;2022-08-24T08:25:49;22.60;99.90
65692;DHT22;52411;52.716;6.696;2022-08-24T08:28:17;22.70;99.90
65692;DHT22;52411;52.716;6.696;2022-08-24T08:30:44;22.80;99.90
65692;DHT22;52411;52.716;6.696;2022-08-24T08:33:10;22.80;99.90
65692;DHT22;52411;52.716;6.696;2022-08-24T08:35:37;22.90;99.90
65692;DHT22;52411;52.716;6.696;2022-08-24T08:38:03;23.00;99.90
65692;DHT22;52411;52.716;6.696;2022-08-24T08:40:53;23.10;99.90
65692;DHT22;52411;52.716;6.696;2022-08-24T08:43:40;23.30;99.90
65692;DHT22;52411;52.716;6.696;2022-08-24T08:46:23;23.40;99.90
65692;DHT22;52411;52.716;6.696;2022-08-24T08:58:05;23.80;99.90
65692;DHT22;52411;52.716;6.696;2022-08-24T09:20:49;24.40;99.90
65692;DHT22;52411;52.716;6.696;2022-08-24T09:23:24;24.50;99.90
65692;DHT22;52411;52.716;6.696;2022-08-24T09:47:21;25.30;99.90
65692;DHT22;52411;52.716;6.696;2022-08-24T10:00:47;25.50;99.90
65692;DHT22;52411;52.716;6.696;2022-08-24T10:03:45;25.70;99.90
65692;DHT22;52411;52.716;6.696;2022-08-24T10:06:40;25.80;99.90
65692;DHT22;52411;52.716;6.696;2022-08-24T10:12:28;25.80;99.90
65692;DHT22;52411;52.716;6.696;2022-08-24T10:15:15;25.90;99.90
65692;DHT22;52411;52.716;6.696;2022-08-24T10:24:24;26.20;99.90
65692;DHT22;52411;52.716;6.696;2022-08-24T10:27:30;26.50;99.90
65692;DHT22;52411;52.716;6.696;2022-08-24T10:33:23;26.70;99.90
65692;DHT22;52411;52.716;6.696;2022-08-24T10:50:11;27.00;99.90
65692;DHT22;52411;52.716;6.696;2022-08-24T10:53:02;27.20;99.90
65692;DHT22;52411;52.716;6.696;2022-08-24T10:55:32;27.30;99.90
65692;DHT22;52411;52.716;6.696;2022-08-24T11:00:44;27.50;99.90
65692;DHT22;52411;52.716;6.696;2022-08-24T11:03:16;27.50;99.90
65692;DHT22;52411;52.716;6.696;2022-08-24T11:05:50;27.50;99.90
65692;DHT22;52411;52.716;6.696;2022-08-24T11:08:27;27.60;99.90
65692;DHT22;52411;52.716;6.696;2022-08-24T11:11:24;27.70;98.70
65692;DHT22;52411;52.716;6.696;2022-08-24T11:14:01;27.90;99.80
65692;DHT22;52411;52.716;6.696;2022-08-24T11:16:31;27.80;99.90
65692;DHT22;52411;52.716;6.696;2022-08-24T11:18:59;28.00;97.90
65692;DHT22;52411;52.716;6.696;2022-08-24T11:21:50;28.00;99.80
65692;DHT22;52411;52.716;6.696;2022-08-24T11:29:54;28.20;97.40
65692;DHT22;52411;52.716;6.696;2022-08-24T11:32:43;28.30;96.30
65692;DHT22;52411;52.716;6.696;2022-08-24T11:35:34;28.30;97.80
65692;DHT22;52411;52.716;6.696;2022-08-24T11:38:19;28.30;98.40
65692;DHT22;52411;52.716;6.696;2022-08-24T11:40:57;28.40;97.40
65692;DHT22;52411;52.716;6.696;2022-08-24T11:43:55;28.60;98.00
65692;DHT22;52411;52.716;6.696;2022-08-24T11:46:34;28.70;96.40
65692;DHT22;52411;52.716;6.696;2022-08-24T11:49:13;28.80;97.80
65692;DHT22;52411;52.716;6.696;2022-08-24T11:54:53;28.70;95.60
65692;DHT22;52411;52.716;6.696;2022-08-24T11:57:32;28.70;94.40
65692;DHT22;52411;52.716;6.696;2022-08-24T12:13:40;29.00;96.10
65692;DHT22;52411;52.716;6.696;2022-08-24T12:16:15;29.10;95.10
65692;DHT22;52411;52.716;6.696;2022-08-24T12:18:46;29.20;96.10
65692;DHT22;52411;52.716;6.696;2022-08-24T12:21:17;29.30;96.90
65692;DHT22;52411;52.716;6.696;2022-08-24T12:23:48;29.30;96.50
65692;DHT22;52411;52.716;6.696;2022-08-24T12:26:31;29.40;95.20
65692;DHT22;52411;52.716;6.696;2022-08-24T12:29:06;29.50;94.30
65692;DHT22;52411;52.716;6.696;2022-08-24T12:32:25;29.60;94.40
65692;DHT22;52411;52.716;6.696;2022-08-24T12:45:27;30.30;92.00
65692;DHT22;52411;52.716;6.696;2022-08-24T12:51:08;30.50;93.30
65692;DHT22;52411;52.716;6.696;2022-08-24T12:59:19;30.40;91.00
65692;DHT22;52411;52.716;6.696;2022-08-24T13:02:06;30.40;93.00
65692;DHT22;52411;52.716;6.696;2022-08-24T13:10:06;30.50;92.20
65692;DHT22;52411;52.716;6.696;2022-08-24T13:26:28;31.10;87.60
65692;DHT22;52411;52.716;6.696;2022-08-24T13:28:48;31.20;81.60
65692;DHT22;52411;52.716;6.696;2022-08-24T13:31:36;31.20;85.80
65692;DHT22;52411;52.716;6.696;2022-08-24T13:47:15;31.60;87.50
65692;DHT22;52411;52.716;6.696;2022-08-24T13:49:55;31.50;80.70
65692;DHT22;52411;52.716;6.696;2022-08-24T13:55:31;31.60;87.30
65692;DHT22;52411;52.716;6.696;2022-08-24T14:01:25;31.40;80.40
65692;DHT22;52411;52.716;6.696;2022-08-24T14:06:54;31.20;80.80
65692;DHT22;52411;52.716;6.696;2022-08-24T14:12:20;31.30;85.50
65692;DHT22;52411;52.716;6.696;2022-08-24T14:14:55;31.40;82.80
65692;DHT22;52411;52.716;6.696;2022-08-24T14:17:48;31.40;84.90
65692;DHT22;52411;52.716;6.696;2022-08-24T14:29:24;32.00;82.40
65692;DHT22;52411;52.716;6.696;2022-08-24T14:37:23;32.40;82.60
65692;DHT22;52411;52.716;6.696;2022-08-24T14:48:44;32.80;78.90
65692;DHT22;52411;52.716;6.696;2022-08-24T15:04:38;32.80;74.50
65692;DHT22;52411;52.716;6.696;2022-08-24T15:07:30;33.10;75.40
65692;DHT22;52411;52.716;6.696;2022-08-24T15:09:57;33.60;74.60
65692;DHT22;52411;52.716;6.696;2022-08-24T15:12:34;33.90;77.80
65692;DHT22;52411;52.716;6.696;2022-08-24T15:15:09;34.30;76.00
65692;DHT22;52411;52.716;6.696;2022-08-24T15:17:45;34.80;73.20
65692;DHT22;52411;52.716;6.696;2022-08-24T15:20:16;35.00;70.00
65692;DHT22;52411;52.716;6.696;2022-08-24T15:22:55;35.00;71.30
65692;DHT22;52411;52.716;6.696;2022-08-24T15:25:36;34.80;66.90
65692;DHT22;52411;52.716;6.696;2022-08-24T15:28:25;35.10;70.30
65692;DHT22;52411;52.716;6.696;2022-08-24T15:31:22;35.20;65.30
65692;DHT22;52411;52.716;6.696;2022-08-24T15:33:56;34.90;62.30
65692;DHT22;52411;52.716;6.696;2022-08-24T15:36:24;34.50;66.90
65692;DHT22;52411;52.716;6.696;2022-08-24T15:38:50;34.20;68.90
65692;DHT22;52411;52.716;6.696;2022-08-24T15:49:35;34.00;66.80
65692;DHT22;52411;52.716;6.696;2022-08-24T15:52:07;33.90;64.50
65692;DHT22;52411;52.716;6.696;2022-08-24T15:54:43;34.40;66.20
65692;DHT22;52411;52.716;6.696;2022-08-24T15:57:25;34.80;62.20
65692;DHT22;52411;52.716;6.696;2022-08-24T15:59:54;35.20;62.30
65692;DHT22;52411;52.716;6.696;2022-08-24T16:02:30;35.50;62.10
65692;DHT22;52411;52.716;6.696;2022-08-24T16:13:13;35.80;61.40
65692;DHT22;52411;52.716;6.696;2022-08-24T16:15:47;35.20;60.90
65692;DHT22;52411;52.716;6.696;2022-08-24T16:18:14;34.50;62.70
65692;DHT22;52411;52.716;6.696;2022-08-24T16:20:40;33.70;63.20
65692;DHT22;52411;52.716;6.696;2022-08-24T16:23:12;33.10;65.10
65692;DHT22;52411;52.716;6.696;2022-08-24T16:25:43;32.70;65.70
65692;DHT22;52411;52.716;6.696;2022-08-24T16:28:12;32.10;67.30
65692;DHT22;52411;52.716;6.696;2022-08-24T16:31:02;31.80;67.90
65692;DHT22;52411;52.716;6.696;2022-08-24T16:36:02;31.10;70.80
65692;DHT22;52411;52.716;6.696;2022-08-24T16:38:29;30.80;71.50
65692;DHT22;52411;52.716;6.696;2022-08-24T16:41:07;30.60;72.30
65692;DHT22;52411;52.716;6.696;2022-08-24T16:43:39;30.50;76.80
65692;DHT22;52411;52.716;6.696;2022-08-24T16:46:07;30.50;81.00
65692;DHT22;52411;52.716;6.696;2022-08-24T16:48:33;30.60;81.90
65692;DHT22;52411;52.716;6.696;2022-08-24T16:50:59;31.10;82.80
65692;DHT22;52411;52.716;6.696;2022-08-24T16:53:25;31.80;82.50
65692;DHT22;52411;52.716;6.696;2022-08-24T16:55:52;32.10;81.70
65692;DHT22;52411;52.716;6.696;2022-08-24T16:58:18;32.10;81.70
65692;DHT22;52411;52.716;6.696;2022-08-24T17:00:44;31.90;82.20
65692;DHT22;52411;52.716;6.696;2022-08-24T17:03:11;31.60;82.50
65692;DHT22;52411;52.716;6.696;2022-08-24T17:05:38;31.40;82.10
65692;DHT22;52411;52.716;6.696;2022-08-24T17:08:04;31.10;82.30
65692;DHT22;52411;52.716;6.696;2022-08-24T17:10:30;30.80;84.40
65692;DHT22;52411;52.716;6.696;2022-08-24T17:12:56;30.40;85.90
65692;DHT22;52411;52.716;6.696;2022-08-24T17:15:22;30.00;88.10
65692;DHT22;52411;52.716;6.696;2022-08-24T17:18:01;29.80;87.70
65692;DHT22;52411;52.716;6.696;2022-08-24T17:20:29;29.70;87.50
65692;DHT22;52411;52.716;6.696;2022-08-24T17:22:55;29.60;86.90
65692;DHT22;52411;52.716;6.696;2022-08-24T17:25:22;29.60;87.40
65692;DHT22;52411;52.716;6.696;2022-08-24T17:27:47;29.70;90.20
65692;DHT22;52411;52.716;6.696;2022-08-24T17:30:13;29.90;90.70
65692;DHT22;52411;52.716;6.696;2022-08-24T17:32:43;29.90;91.70
65692;DHT22;52411;52.716;6.696;2022-08-24T17:35:08;29.90;92.30
65692;DHT22;52411;52.716;6.696;2022-08-24T17:37:34;30.20;91.90
65692;DHT22;52411;52.716;6.696;2022-08-24T17:40:01;30.60;90.40
65692;DHT22;52411;52.716;6.696;2022-08-24T17:42:29;30.70;89.60
65692;DHT22;52411;52.716;6.696;2022-08-24T17:44:54;30.60;89.30
65692;DHT22;52411;52.716;6.696;2022-08-24T17:47:20;30.40;89.50
65692;DHT22;52411;52.716;6.696;2022-08-24T17:49:46;30.10;90.30
65692;DHT22;52411;52.716;6.696;2022-08-24T17:52:12;29.90;90.60
65692;DHT22;52411;52.716;6.696;2022-08-24T17:54:38;29.70;90.80
65692;DHT22;52411;52.716;6.696;2022-08-24T17:57:04;29.50;91.00
65692;DHT22;52411;52.716;6.696;2022-08-24T17:59:32;29.30;91.40
65692;DHT22;52411;52.716;6.696;2022-08-24T18:02:05;29.20;91.00
65692;DHT22;52411;52.716;6.696;2022-08-24T18:04:32;29.10;91.10
65692;DHT22;52411;52.716;6.696;2022-08-24T18:07:01;29.00;91.10
65692;DHT22;52411;52.716;6.696;2022-08-24T18:09:33;28.80;92.10
65692;DHT22;52411;52.716;6.696;2022-08-24T18:12:01;28.50;94.10
65692;DHT22;52411;52.716;6.696;2022-08-24T18:14:28;28.40;94.70
65692;DHT22;52411;52.716;6.696;2022-08-24T18:16:56;28.10;95.50
65692;DHT22;52411;52.716;6.696;2022-08-24T18:19:22;28.00;96.10
65692;DHT22;52411;52.716;6.696;2022-08-24T18:21:49;27.70;96.50
65692;DHT22;52411;52.716;6.696;2022-08-24T18:24:15;27.40;97.00
65692;DHT22;52411;52.716;6.696;2022-08-24T18:26:41;27.20;97.30
65692;DHT22;52411;52.716;6.696;2022-08-24T18:29:12;27.10;97.20
65692;DHT22;52411;52.716;6.696;2022-08-24T18:31:39;27.00;97.60
65692;DHT22;52411;52.716;6.696;2022-08-24T18:34:04;27.00;96.90
65692;DHT22;52411;52.716;6.696;2022-08-24T18:36:30;27.00;96.60
65692;DHT22;52411;52.716;6.696;2022-08-24T18:38:56;26.90;96.00
65692;DHT22;52411;52.716;6.696;2022-08-24T18:41:24;27.00;95.70
65692;DHT22;52411;52.716;6.696;2022-08-24T18:43:51;26.90;95.90
65692;DHT22;52411;52.716;6.696;2022-08-24T18:46:19;26.80;96.00
65692;DHT22;52411;52.716;6.696;2022-08-24T18:48:44;26.70;96.30
65692;DHT22;52411;52.716;6.696;2022-08-24T18:51:12;26.70;96.40
65692;DHT22;52411;52.716;6.696;2022-08-24T18:53:41;26.70;96.80
65692;DHT22;52411;52.716;6.696;2022-08-24T18:56:07;26.70;96.40
65692;DHT22;52411;52.716;6.696;2022-08-24T18:58:35;26.70;96.50
65692;DHT22;52411;52.716;6.696;2022-08-24T19:01:04;26.60;96.70
65692;DHT22;52411;52.716;6.696;2022-08-24T19:03:30;26.60;96.90
65692;DHT22;52411;52.716;6.696;2022-08-24T19:05:56;26.60;97.20
65692;DHT22;52411;52.716;6.696;2022-08-24T19:08:22;26.60;97.00
65692;DHT22;52411;52.716;6.696;2022-08-24T19:10:48;26.40;97.20
65692;DHT22;52411;52.716;6.696;2022-08-24T19:13:15;26.40;97.30
65692;DHT22;52411;52.716;6.696;2022-08-24T19:15:44;26.30;97.90
65692;DHT22;52411;52.716;6.696;2022-08-24T19:18:19;26.20;98.00
65692;DHT22;52411;52.716;6.696;2022-08-24T19:20:48;25.90;98.40
65692;DHT22;52411;52.716;6.696;2022-08-24T19:23:19;25.90;98.30
65692;DHT22;52411;52.716;6.696;2022-08-24T19:25:47;25.90;98.30
65692;DHT22;52411;52.716;6.696;2022-08-24T19:28:13;26.00;97.90
65692;DHT22;52411;52.716;6.696;2022-08-24T19:30:40;26.00;97.70
65692;DHT22;52411;52.716;6.696;2022-08-24T19:33:10;25.90;97.90
65692;DHT22;52411;52.716;6.696;2022-08-24T19:35:36;25.90;97.80
65692;DHT22;52411;52.716;6.696;2022-08-24T19:38:02;25.80;98.00
65692;DHT22;52411;52.716;6.696;2022-08-24T19:40:28;25.70;98.10